Portada
METAR-TAF:

METAR-TAF

Aeroports :

Aeroport Internacional de Sfax

Sfax, Tunísia

latitud: 34-43N, longitud: 010-41E, altitud: 21 m

Observació

L'informe es va fer fa 15 minuts, a les 12:00 UTC
Vent 12 kt del Est/Nord-Est
Temperatura 33°C
Humitat 53%
Pressió 1013 hPa
Visibilitat 10 km o més
sense núvols per sota de 1500 mi sense presència de cumulonimbus.

METAR: DTTX 051200Z 07012KT CAVOK 33/22 Q1013

Hora: 13:15 (12:15 UTC)

Pronòstic

L'informe es va fer fa 1 hora i 15 minuts, a les 11:00 UTC
Pronòstic vàlid del 05 a les 12 UTC al 06 a les 12 UTC
Vent 16 kt del Nord-Est
Visibilitat 10 km o més
sense núvols per sota de 1500 mi sense presència de cumulonimbus.
Evolucionant progressivament
l' 05 a les 19 UTC al 05 a les 21 UTC
Vent 10 kt del Nord
Evolucionant progressivament
l' 06 a les 07 UTC al 06 a les 09 UTC
Vent 10 kt del Est/Nord-Est

TAF: DTTX 051100Z 0512/0612 05016KT CAVOK BECMG 0519/0521 01010KT BECMG 0607/0609 07010KT

Observacions i pronòstics meteorològics de més de 4000 aeroports (METAR i TAF).

Les estacions disponibles són els punts grocs i vermells al mapa.

Posi el ratolí al punt desitjat per veure el nom de l'estació.

Feu clic per veure les observacions i els pronòstics meteorològics.

Per canviar el mapa: feu clic els botons verds amb una creu de color negre per apropar; al botó verd amb un guió per allunyar la imatge; o en les fletxes verdes per a mapes adjacents.


METAR-TAF: